CDT,Max TemperatureF,Mean TemperatureF,Min TemperatureF,Max Dew PointF,MeanDew PointF,Min DewpointF,Max Humidity, Mean Humidity, Min Humidity, Max Sea Level PressureIn, Mean Sea Level PressureIn, Min Sea Level PressureIn, Max VisibilityMiles, Mean VisibilityMiles, Min VisibilityMiles, Max Wind SpeedMPH, Mean Wind SpeedMPH, Max Gust SpeedMPH,PrecipitationIn, CloudCover, Events, WindDirDegrees
2011-10-1,75,55,35,37,35,32,93,57,22,30.27,30.20,30.15,10,10,7,16,4,23,0.00,0,,160
2011-10-2,80,60,41,39,36,34,76,46,20,30.19,30.15,30.08,10,10,10,18,7,23,0.00,0,,159
2011-10-3,82,62,42,45,40,36,81,48,21,30.13,30.10,30.05,10,10,10,21,6,29,0.00,0,,145
2011-10-4,89,70,50,45,43,36,76,44,16,30.07,30.03,29.97,10,10,10,22,9,26,0.00,1,,156
2011-10-5,82,68,53,45,40,36,67,39,19,30.02,29.97,29.89,10,10,10,26,11,38,0.00,1,,158
2011-10-6,78,66,55,54,46,39,88,48,32,29.91,29.82,29.72,10,10,7,36,16,47,0.00,3,Rain,150
2011-10-7,80,70,60,64,56,43,88,62,35,29.92,29.82,29.75,10,10,7,30,20,39,0.12,6,Rain-Thunderstorm,178
2011-10-8,69,64,60,61,59,57,94,83,68,30.06,29.98,29.88,10,9,3,14,6,17,0.42,8,Rain-Thunderstorm,131
2011-10-9,64,62,59,61,58,55,94,87,77,30.12,30.07,29.99,10,9,4,15,5,22,0.16,8,Rain,130
2011-10-10,69,60,51,52,49,45,94,76,40,30.05,29.98,29.90,10,10,10,14,7,18,0.00,4,Rain,188
2011-10-11,66,57,48,55,51,46,94,79,64,29.91,29.82,29.72,10,10,5,14,6,21,0.00,3,Rain-Thunderstorm,169
2011-10-12,68,58,48,54,48,43,100,74,45,29.87,29.76,29.70,10,9,0,24,7,30,0.00,2,Fog-Rain-Thunderstorm,327
2011-10-13,69,56,42,41,35,32,76,49,25,29.92,29.88,29.82,10,10,10,20,11,28,0.00,0,,319
2011-10-14,55,48,42,36,32,28,70,51,36,30.06,30.00,29.90,10,10,10,22,10,28,0.00,4,,321
2011-10-15,73,52,32,45,36,30,100,61,31,30.06,29.93,29.72,10,10,10,18,3,28,0.00,1,,189
2011-10-16,59,49,39,39,35,28,87,57,34,30.11,30.02,29.79,10,10,10,18,10,24,0.00,0,,344
2011-10-17,46,40,33,41,37,32,93,82,71,30.10,30.06,30.01,10,10,10,21,2,29,0.09,7,Rain,321
2011-10-18,53,42,32,36,31,27,93,66,38,30.17,30.12,30.05,10,10,10,23,11,32,0.00,1,,333
2011-10-19,46,38,30,30,26,19,93,67,34,30.18,30.13,30.09,10,10,10,17,8,25,0.00,0,,346
2011-10-20,51,37,23,32,27,21,93,72,43,30.11,30.07,30.01,10,10,3,9,5,,0.00,1,,327
2011-10-21,73,52,32,41,35,28,93,59,27,30.10,30.05,30.02,10,10,10,15,4,22,0.00,0,,333
2011-10-22,59,49,39,46,40,36,93,75,51,30.12,30.09,30.04,10,10,4,12,3,,0.00,2,,139
2011-10-23,73,53,33,48,37,32,100,67,25,30.05,29.97,29.92,10,9,4,18,3,26,0.00,1,,313
2011-10-24,73,55,37,41,37,34,93,57,25,30.08,29.98,29.77,10,10,10,17,3,22,0.00,1,,158
2011-10-25,60,50,41,43,39,36,87,63,44,30.07,29.82,29.67,10,10,10,29,10,34,0.00,0,,343
2011-10-26,46,42,39,41,35,32,87,71,57,30.19,30.14,30.10,10,10,10,17,9,23,0.00,6,Rain,340
2011-10-27,53,38,24,32,26,21,93,63,30,30.16,30.12,30.06,10,10,10,10,5,22,0.00,1,,295
2011-10-28,55,42,28,32,25,21,86,57,26,30.24,30.17,30.11,10,10,10,17,6,24,0.00,1,,327
2011-10-29,64,44,24,36,29,21,87,61,26,30.14,29.92,29.76,10,10,10,18,4,26,0.00,1,,179
2011-10-30,59,46,32,34,27,21,81,48,23,30.07,30.01,29.88,10,10,10,26,15,39,0.00,1,,319
2011-10-31,69,46,24,32,27,21,87,55,24,30.08,29.96,29.82,10,10,10,16,4,23,0.00,0,,171